sensor_id;sensor_type;location;lat;lon;timestamp;temperature;humidity
39665;DHT22;26679;50.872;4.332;2024-03-07T00:01:28;22.00;63.70
39665;DHT22;26679;50.872;4.332;2024-03-07T00:03:53;22.00;63.70
39665;DHT22;26679;50.872;4.332;2024-03-07T00:06:19;22.00;63.80
39665;DHT22;26679;50.872;4.332;2024-03-07T00:08:46;22.00;63.80
39665;DHT22;26679;50.872;4.332;2024-03-07T00:11:11;22.00;63.90
39665;DHT22;26679;50.872;4.332;2024-03-07T00:13:37;21.90;63.90
39665;DHT22;26679;50.872;4.332;2024-03-07T00:16:02;21.90;63.90
39665;DHT22;26679;50.872;4.332;2024-03-07T00:18:28;21.90;63.90
39665;DHT22;26679;50.872;4.332;2024-03-07T00:20:54;21.90;64.00
39665;DHT22;26679;50.872;4.332;2024-03-07T00:23:20;21.80;64.00
39665;DHT22;26679;50.872;4.332;2024-03-07T00:25:45;21.80;64.00
39665;DHT22;26679;50.872;4.332;2024-03-07T00:28:14;21.80;64.00
39665;DHT22;26679;50.872;4.332;2024-03-07T00:30:45;21.80;64.10
39665;DHT22;26679;50.872;4.332;2024-03-07T00:33:11;21.80;64.10
39665;DHT22;26679;50.872;4.332;2024-03-07T00:35:37;21.80;64.20
39665;DHT22;26679;50.872;4.332;2024-03-07T00:38:02;21.80;64.20
39665;DHT22;26679;50.872;4.332;2024-03-07T00:40:29;21.70;64.20
39665;DHT22;26679;50.872;4.332;2024-03-07T00:42:54;21.70;64.30
39665;DHT22;26679;50.872;4.332;2024-03-07T00:45:20;21.70;64.40
39665;DHT22;26679;50.872;4.332;2024-03-07T00:47:45;21.60;64.40
39665;DHT22;26679;50.872;4.332;2024-03-07T00:50:11;21.70;64.50
39665;DHT22;26679;50.872;4.332;2024-03-07T00:52:37;21.60;64.50
39665;DHT22;26679;50.872;4.332;2024-03-07T00:55:03;21.60;64.50
39665;DHT22;26679;50.872;4.332;2024-03-07T00:57:29;21.60;64.50
39665;DHT22;26679;50.872;4.332;2024-03-07T00:59:54;21.60;64.60
39665;DHT22;26679;50.872;4.332;2024-03-07T01:02:21;21.60;64.70
39665;DHT22;26679;50.872;4.332;2024-03-07T01:04:47;21.50;64.60
39665;DHT22;26679;50.872;4.332;2024-03-07T01:07:13;21.50;64.70
39665;DHT22;26679;50.872;4.332;2024-03-07T01:09:39;21.50;64.80
39665;DHT22;26679;50.872;4.332;2024-03-07T01:12:04;21.50;64.80
39665;DHT22;26679;50.872;4.332;2024-03-07T01:14:31;21.40;64.90
39665;DHT22;26679;50.872;4.332;2024-03-07T01:16:56;21.40;64.90
39665;DHT22;26679;50.872;4.332;2024-03-07T01:19:22;21.40;65.00
39665;DHT22;26679;50.872;4.332;2024-03-07T01:21:47;21.40;65.10
39665;DHT22;26679;50.872;4.332;2024-03-07T01:24:13;21.40;65.20
39665;DHT22;26679;50.872;4.332;2024-03-07T01:26:43;21.30;65.20
39665;DHT22;26679;50.872;4.332;2024-03-07T01:29:08;21.30;65.20
39665;DHT22;26679;50.872;4.332;2024-03-07T01:31:34;21.30;65.30
39665;DHT22;26679;50.872;4.332;2024-03-07T01:33:59;21.20;65.80
39665;DHT22;26679;50.872;4.332;2024-03-07T01:36:25;21.30;65.30
39665;DHT22;26679;50.872;4.332;2024-03-07T01:38:50;21.20;65.30
39665;DHT22;26679;50.872;4.332;2024-03-07T01:41:16;21.20;65.40
39665;DHT22;26679;50.872;4.332;2024-03-07T01:43:42;21.20;65.50
39665;DHT22;26679;50.872;4.332;2024-03-07T01:46:08;21.20;65.60
39665;DHT22;26679;50.872;4.332;2024-03-07T01:48:35;21.20;66.20
39665;DHT22;26679;50.872;4.332;2024-03-07T01:51:01;21.20;65.60
39665;DHT22;26679;50.872;4.332;2024-03-07T01:53:29;21.20;65.70
39665;DHT22;26679;50.872;4.332;2024-03-07T01:55:56;21.10;65.70
39665;DHT22;26679;50.872;4.332;2024-03-07T01:58:21;21.10;65.70
39665;DHT22;26679;50.872;4.332;2024-03-07T02:00:47;21.10;65.80
39665;DHT22;26679;50.872;4.332;2024-03-07T02:03:13;21.10;65.90
39665;DHT22;26679;50.872;4.332;2024-03-07T02:05:39;21.10;65.90
39665;DHT22;26679;50.872;4.332;2024-03-07T02:08:05;21.00;65.90
39665;DHT22;26679;50.872;4.332;2024-03-07T02:10:30;21.00;66.00
39665;DHT22;26679;50.872;4.332;2024-03-07T02:12:55;21.00;66.00
39665;DHT22;26679;50.872;4.332;2024-03-07T02:15:21;21.00;66.00
39665;DHT22;26679;50.872;4.332;2024-03-07T02:17:46;21.00;66.10
39665;DHT22;26679;50.872;4.332;2024-03-07T02:20:12;21.00;66.20
39665;DHT22;26679;50.872;4.332;2024-03-07T02:22:38;21.00;66.20
39665;DHT22;26679;50.872;4.332;2024-03-07T02:25:04;21.00;66.30
39665;DHT22;26679;50.872;4.332;2024-03-07T02:27:30;20.90;66.30
39665;DHT22;26679;50.872;4.332;2024-03-07T02:29:55;20.90;66.30
39665;DHT22;26679;50.872;4.332;2024-03-07T02:32:21;20.90;66.30
39665;DHT22;26679;50.872;4.332;2024-03-07T02:34:46;20.90;66.40
39665;DHT22;26679;50.872;4.332;2024-03-07T02:37:12;20.90;66.40
39665;DHT22;26679;50.872;4.332;2024-03-07T02:39:39;20.90;66.50
39665;DHT22;26679;50.872;4.332;2024-03-07T02:42:04;20.90;66.50
39665;DHT22;26679;50.872;4.332;2024-03-07T02:44:30;20.80;66.50
39665;DHT22;26679;50.872;4.332;2024-03-07T02:46:57;20.80;66.50
39665;DHT22;26679;50.872;4.332;2024-03-07T02:49:22;20.80;66.50
39665;DHT22;26679;50.872;4.332;2024-03-07T02:51:48;20.80;66.50
39665;DHT22;26679;50.872;4.332;2024-03-07T02:54:13;20.80;66.60
39665;DHT22;26679;50.872;4.332;2024-03-07T02:56:39;20.80;66.60
39665;DHT22;26679;50.872;4.332;2024-03-07T02:59:05;20.80;66.60
39665;DHT22;26679;50.872;4.332;2024-03-07T03:01:32;20.80;66.70
39665;DHT22;26679;50.872;4.332;2024-03-07T03:03:57;20.80;66.70
39665;DHT22;26679;50.872;4.332;2024-03-07T03:06:23;20.70;66.60
39665;DHT22;26679;50.872;4.332;2024-03-07T03:08:48;20.70;66.70
39665;DHT22;26679;50.872;4.332;2024-03-07T03:11:14;20.70;66.70
39665;DHT22;26679;50.872;4.332;2024-03-07T03:13:40;20.70;66.80
39665;DHT22;26679;50.872;4.332;2024-03-07T03:16:05;20.70;66.80
39665;DHT22;26679;50.872;4.332;2024-03-07T03:18:35;20.80;66.80
39665;DHT22;26679;50.872;4.332;2024-03-07T03:21:00;20.80;66.80
39665;DHT22;26679;50.872;4.332;2024-03-07T03:23:27;20.80;66.80
39665;DHT22;26679;50.872;4.332;2024-03-07T03:25:52;20.80;66.70
39665;DHT22;26679;50.872;4.332;2024-03-07T03:28:19;20.80;66.70
39665;DHT22;26679;50.872;4.332;2024-03-07T03:30:44;20.80;66.70
39665;DHT22;26679;50.872;4.332;2024-03-07T03:33:10;20.90;66.70
39665;DHT22;26679;50.872;4.332;2024-03-07T03:35:35;20.90;66.70
39665;DHT22;26679;50.872;4.332;2024-03-07T03:38:01;20.90;66.60
39665;DHT22;26679;50.872;4.332;2024-03-07T03:40:26;21.00;66.60
39665;DHT22;26679;50.872;4.332;2024-03-07T03:42:52;21.00;66.60
39665;DHT22;26679;50.872;4.332;2024-03-07T03:45:18;21.10;66.60
39665;DHT22;26679;50.872;4.332;2024-03-07T03:47:43;21.10;66.50
39665;DHT22;26679;50.872;4.332;2024-03-07T03:50:12;21.20;66.50
39665;DHT22;26679;50.872;4.332;2024-03-07T03:52:38;21.20;66.50
39665;DHT22;26679;50.872;4.332;2024-03-07T03:55:04;21.20;66.40
39665;DHT22;26679;50.872;4.332;2024-03-07T03:57:31;21.30;66.50
39665;DHT22;26679;50.872;4.332;2024-03-07T03:59:57;21.30;66.40
39665;DHT22;26679;50.872;4.332;2024-03-07T04:02:22;21.40;66.40
39665;DHT22;26679;50.872;4.332;2024-03-07T04:04:48;21.40;66.30
39665;DHT22;26679;50.872;4.332;2024-03-07T04:07:14;21.40;66.30
39665;DHT22;26679;50.872;4.332;2024-03-07T04:09:41;21.40;66.30
39665;DHT22;26679;50.872;4.332;2024-03-07T04:12:07;21.50;66.30
39665;DHT22;26679;50.872;4.332;2024-03-07T04:14:43;21.50;66.30
39665;DHT22;26679;50.872;4.332;2024-03-07T04:17:09;21.50;66.30
39665;DHT22;26679;50.872;4.332;2024-03-07T04:19:40;21.50;66.70
39665;DHT22;26679;50.872;4.332;2024-03-07T04:22:06;21.60;66.30
39665;DHT22;26679;50.872;4.332;2024-03-07T04:24:36;21.60;66.20
39665;DHT22;26679;50.872;4.332;2024-03-07T04:27:02;21.60;66.20
39665;DHT22;26679;50.872;4.332;2024-03-07T04:29:31;21.60;66.10
39665;DHT22;26679;50.872;4.332;2024-03-07T04:31:57;21.70;66.20
39665;DHT22;26679;50.872;4.332;2024-03-07T04:34:23;21.70;66.10
39665;DHT22;26679;50.872;4.332;2024-03-07T04:36:48;21.70;66.10
39665;DHT22;26679;50.872;4.332;2024-03-07T04:39:14;21.80;66.10
39665;DHT22;26679;50.872;4.332;2024-03-07T04:42:00;21.80;66.10
39665;DHT22;26679;50.872;4.332;2024-03-07T04:44:29;21.80;66.00
39665;DHT22;26679;50.872;4.332;2024-03-07T04:46:55;21.90;66.00
39665;DHT22;26679;50.872;4.332;2024-03-07T04:49:22;21.90;66.00
39665;DHT22;26679;50.872;4.332;2024-03-07T04:51:49;21.90;65.90
39665;DHT22;26679;50.872;4.332;2024-03-07T04:54:16;22.00;66.00
39665;DHT22;26679;50.872;4.332;2024-03-07T04:56:41;22.00;66.00
39665;DHT22;26679;50.872;4.332;2024-03-07T04:59:07;22.00;65.90
39665;DHT22;26679;50.872;4.332;2024-03-07T05:01:32;22.00;65.90
39665;DHT22;26679;50.872;4.332;2024-03-07T05:03:57;22.10;65.90
39665;DHT22;26679;50.872;4.332;2024-03-07T05:06:23;22.10;65.90
39665;DHT22;26679;50.872;4.332;2024-03-07T05:08:48;22.10;65.80
39665;DHT22;26679;50.872;4.332;2024-03-07T05:11:14;22.10;65.80
39665;DHT22;26679;50.872;4.332;2024-03-07T05:13:39;22.10;65.80
39665;DHT22;26679;50.872;4.332;2024-03-07T05:16:07;22.20;65.80
39665;DHT22;26679;50.872;4.332;2024-03-07T05:18:33;22.20;65.80
39665;DHT22;26679;50.872;4.332;2024-03-07T05:20:58;22.20;65.80
39665;DHT22;26679;50.872;4.332;2024-03-07T05:23:44;22.20;65.80
39665;DHT22;26679;50.872;4.332;2024-03-07T05:26:09;22.20;65.80
39665;DHT22;26679;50.872;4.332;2024-03-07T05:28:36;22.30;65.80
39665;DHT22;26679;50.872;4.332;2024-03-07T05:31:01;22.30;65.80
39665;DHT22;26679;50.872;4.332;2024-03-07T05:33:29;22.30;66.30
39665;DHT22;26679;50.872;4.332;2024-03-07T05:35:54;22.30;65.80
39665;DHT22;26679;50.872;4.332;2024-03-07T05:38:28;22.30;65.80
39665;DHT22;26679;50.872;4.332;2024-03-07T05:40:53;22.40;65.80
39665;DHT22;26679;50.872;4.332;2024-03-07T05:43:19;22.40;65.80
39665;DHT22;26679;50.872;4.332;2024-03-07T05:45:44;22.40;65.80
39665;DHT22;26679;50.872;4.332;2024-03-07T05:48:14;22.40;65.80
39665;DHT22;26679;50.872;4.332;2024-03-07T05:50:40;22.40;65.80
39665;DHT22;26679;50.872;4.332;2024-03-07T05:53:05;22.40;65.80
39665;DHT22;26679;50.872;4.332;2024-03-07T05:55:33;22.50;65.90
39665;DHT22;26679;50.872;4.332;2024-03-07T05:57:58;22.50;65.90
39665;DHT22;26679;50.872;4.332;2024-03-07T06:00:24;22.50;65.90
39665;DHT22;26679;50.872;4.332;2024-03-07T06:02:53;22.50;65.90
39665;DHT22;26679;50.872;4.332;2024-03-07T06:05:18;22.50;65.90
39665;DHT22;26679;50.872;4.332;2024-03-07T06:07:44;22.50;65.90
39665;DHT22;26679;50.872;4.332;2024-03-07T06:10:11;22.60;65.90
39665;DHT22;26679;50.872;4.332;2024-03-07T06:12:36;22.60;65.90
39665;DHT22;26679;50.872;4.332;2024-03-07T06:15:05;22.60;65.90
39665;DHT22;26679;50.872;4.332;2024-03-07T06:17:31;22.60;65.90
39665;DHT22;26679;50.872;4.332;2024-03-07T06:19:56;22.60;65.90
39665;DHT22;26679;50.872;4.332;2024-03-07T06:22:22;22.60;65.80
39665;DHT22;26679;50.872;4.332;2024-03-07T06:24:47;22.60;65.80
39665;DHT22;26679;50.872;4.332;2024-03-07T06:27:13;22.60;65.80
39665;DHT22;26679;50.872;4.332;2024-03-07T06:29:51;22.60;65.80
39665;DHT22;26679;50.872;4.332;2024-03-07T06:32:18;22.60;65.70
39665;DHT22;26679;50.872;4.332;2024-03-07T06:34:44;22.70;65.80
39665;DHT22;26679;50.872;4.332;2024-03-07T06:37:09;22.70;65.70
39665;DHT22;26679;50.872;4.332;2024-03-07T06:39:35;22.70;65.70
39665;DHT22;26679;50.872;4.332;2024-03-07T06:42:00;22.70;65.70
39665;DHT22;26679;50.872;4.332;2024-03-07T06:44:26;22.70;65.60
39665;DHT22;26679;50.872;4.332;2024-03-07T06:46:52;22.70;65.60
39665;DHT22;26679;50.872;4.332;2024-03-07T06:49:17;22.70;65.60
39665;DHT22;26679;50.872;4.332;2024-03-07T06:51:43;22.80;65.60
39665;DHT22;26679;50.872;4.332;2024-03-07T06:54:09;22.70;65.50
39665;DHT22;26679;50.872;4.332;2024-03-07T06:56:36;22.80;65.60
39665;DHT22;26679;50.872;4.332;2024-03-07T06:59:01;22.80;65.50
39665;DHT22;26679;50.872;4.332;2024-03-07T07:01:30;22.80;65.50
39665;DHT22;26679;50.872;4.332;2024-03-07T07:03:56;22.80;65.50
39665;DHT22;26679;50.872;4.332;2024-03-07T07:06:24;22.80;65.40
39665;DHT22;26679;50.872;4.332;2024-03-07T07:11:18;22.80;65.30
39665;DHT22;26679;50.872;4.332;2024-03-07T07:13:44;22.90;65.30
39665;DHT22;26679;50.872;4.332;2024-03-07T07:16:12;22.90;65.30
39665;DHT22;26679;50.872;4.332;2024-03-07T07:18:37;22.90;65.20
39665;DHT22;26679;50.872;4.332;2024-03-07T07:21:03;23.00;65.20
39665;DHT22;26679;50.872;4.332;2024-03-07T07:23:29;23.00;65.20
39665;DHT22;26679;50.872;4.332;2024-03-07T07:25:55;23.00;65.10
39665;DHT22;26679;50.872;4.332;2024-03-07T07:28:20;23.00;65.10
39665;DHT22;26679;50.872;4.332;2024-03-07T07:30:46;23.10;65.10
39665;DHT22;26679;50.872;4.332;2024-03-07T07:33:12;23.00;65.00
39665;DHT22;26679;50.872;4.332;2024-03-07T07:35:38;23.10;65.60
39665;DHT22;26679;50.872;4.332;2024-03-07T07:38:04;23.10;65.00
39665;DHT22;26679;50.872;4.332;2024-03-07T07:40:32;23.10;64.90
39665;DHT22;26679;50.872;4.332;2024-03-07T07:42:58;23.10;64.90
39665;DHT22;26679;50.872;4.332;2024-03-07T07:45:24;23.10;64.90
39665;DHT22;26679;50.872;4.332;2024-03-07T07:47:50;23.10;64.90
39665;DHT22;26679;50.872;4.332;2024-03-07T07:50:17;23.10;64.80
39665;DHT22;26679;50.872;4.332;2024-03-07T07:55:08;23.20;64.80
39665;DHT22;26679;50.872;4.332;2024-03-07T07:57:43;23.20;64.80
39665;DHT22;26679;50.872;4.332;2024-03-07T08:00:18;23.20;64.70
39665;DHT22;26679;50.872;4.332;2024-03-07T08:03:09;23.30;64.70
39665;DHT22;26679;50.872;4.332;2024-03-07T08:05:34;23.30;64.60
39665;DHT22;26679;50.872;4.332;2024-03-07T08:08:02;23.30;64.60
39665;DHT22;26679;50.872;4.332;2024-03-07T08:10:32;23.30;64.60
39665;DHT22;26679;50.872;4.332;2024-03-07T08:12:57;23.30;64.50
39665;DHT22;26679;50.872;4.332;2024-03-07T08:15:24;23.30;64.50
39665;DHT22;26679;50.872;4.332;2024-03-07T08:17:50;23.40;64.50
39665;DHT22;26679;50.872;4.332;2024-03-07T08:20:20;23.40;64.50
39665;DHT22;26679;50.872;4.332;2024-03-07T08:22:51;23.40;64.50
39665;DHT22;26679;50.872;4.332;2024-03-07T08:25:18;23.50;64.40
39665;DHT22;26679;50.872;4.332;2024-03-07T08:27:44;23.50;64.40
39665;DHT22;26679;50.872;4.332;2024-03-07T08:30:11;23.50;64.30
39665;DHT22;26679;50.872;4.332;2024-03-07T08:32:45;23.60;64.30
39665;DHT22;26679;50.872;4.332;2024-03-07T08:35:11;23.60;64.30
39665;DHT22;26679;50.872;4.332;2024-03-07T08:40:02;23.60;64.20
39665;DHT22;26679;50.872;4.332;2024-03-07T08:42:32;23.70;64.20
39665;DHT22;26679;50.872;4.332;2024-03-07T08:44:59;23.70;64.20
39665;DHT22;26679;50.872;4.332;2024-03-07T08:47:25;23.70;64.00
39665;DHT22;26679;50.872;4.332;2024-03-07T08:49:50;23.80;64.00
39665;DHT22;26679;50.872;4.332;2024-03-07T08:52:16;23.80;64.00
39665;DHT22;26679;50.872;4.332;2024-03-07T08:54:42;23.90;64.00
39665;DHT22;26679;50.872;4.332;2024-03-07T08:57:08;23.90;63.90
39665;DHT22;26679;50.872;4.332;2024-03-07T08:59:34;24.00;63.90
39665;DHT22;26679;50.872;4.332;2024-03-07T09:01:59;24.00;63.80
39665;DHT22;26679;50.872;4.332;2024-03-07T09:04:27;24.00;63.80
39665;DHT22;26679;50.872;4.332;2024-03-07T09:06:54;24.00;63.70
39665;DHT22;26679;50.872;4.332;2024-03-07T09:09:19;24.00;63.70
39665;DHT22;26679;50.872;4.332;2024-03-07T09:11:45;24.10;63.70
39665;DHT22;26679;50.872;4.332;2024-03-07T09:14:10;24.10;63.60
39665;DHT22;26679;50.872;4.332;2024-03-07T09:16:36;24.20;63.60
39665;DHT22;26679;50.872;4.332;2024-03-07T09:19:01;24.30;63.60
39665;DHT22;26679;50.872;4.332;2024-03-07T09:21:28;24.30;63.50
39665;DHT22;26679;50.872;4.332;2024-03-07T09:23:53;24.30;63.40
39665;DHT22;26679;50.872;4.332;2024-03-07T09:26:19;24.30;63.30
39665;DHT22;26679;50.872;4.332;2024-03-07T09:28:45;24.40;63.30
39665;DHT22;26679;50.872;4.332;2024-03-07T09:31:14;24.40;63.20
39665;DHT22;26679;50.872;4.332;2024-03-07T09:33:39;24.50;63.30
39665;DHT22;26679;50.872;4.332;2024-03-07T09:36:05;24.40;63.10
39665;DHT22;26679;50.872;4.332;2024-03-07T09:38:32;24.50;63.10
39665;DHT22;26679;50.872;4.332;2024-03-07T09:40:58;24.50;63.10
39665;DHT22;26679;50.872;4.332;2024-03-07T09:43:25;24.40;63.10
39665;DHT22;26679;50.872;4.332;2024-03-07T09:45:51;24.50;63.10
39665;DHT22;26679;50.872;4.332;2024-03-07T09:48:17;24.60;63.00
39665;DHT22;26679;50.872;4.332;2024-03-07T09:50:44;24.60;63.10
39665;DHT22;26679;50.872;4.332;2024-03-07T09:53:11;24.60;62.90
39665;DHT22;26679;50.872;4.332;2024-03-07T09:55:37;24.80;63.00
39665;DHT22;26679;50.872;4.332;2024-03-07T09:58:02;25.00;62.70
39665;DHT22;26679;50.872;4.332;2024-03-07T10:00:31;25.30;62.60
39665;DHT22;26679;50.872;4.332;2024-03-07T10:02:58;25.80;62.40
39665;DHT22;26679;50.872;4.332;2024-03-07T10:05:26;26.30;62.00
39665;DHT22;26679;50.872;4.332;2024-03-07T10:07:52;26.80;61.80
39665;DHT22;26679;50.872;4.332;2024-03-07T10:10:18;27.30;61.40
39665;DHT22;26679;50.872;4.332;2024-03-07T10:12:43;27.60;60.90
39665;DHT22;26679;50.872;4.332;2024-03-07T10:15:10;28.00;60.50
39665;DHT22;26679;50.872;4.332;2024-03-07T10:17:41;28.30;60.00
39665;DHT22;26679;50.872;4.332;2024-03-07T10:20:08;28.60;59.70
39665;DHT22;26679;50.872;4.332;2024-03-07T10:22:36;28.80;59.40
39665;DHT22;26679;50.872;4.332;2024-03-07T10:25:01;29.10;59.20
39665;DHT22;26679;50.872;4.332;2024-03-07T10:27:28;29.20;59.00
39665;DHT22;26679;50.872;4.332;2024-03-07T10:29:54;29.40;58.70
39665;DHT22;26679;50.872;4.332;2024-03-07T10:32:20;29.70;58.50
39665;DHT22;26679;50.872;4.332;2024-03-07T10:34:46;29.90;58.30
39665;DHT22;26679;50.872;4.332;2024-03-07T10:37:14;29.90;58.10
39665;DHT22;26679;50.872;4.332;2024-03-07T10:39:43;30.00;58.10
39665;DHT22;26679;50.872;4.332;2024-03-07T10:42:08;30.20;57.90
39665;DHT22;26679;50.872;4.332;2024-03-07T10:44:42;30.50;57.80
39665;DHT22;26679;50.872;4.332;2024-03-07T10:47:09;30.70;57.60
39665;DHT22;26679;50.872;4.332;2024-03-07T10:49:36;30.90;57.40
39665;DHT22;26679;50.872;4.332;2024-03-07T10:52:14;31.10;57.30
39665;DHT22;26679;50.872;4.332;2024-03-07T10:54:51;31.20;57.10
39665;DHT22;26679;50.872;4.332;2024-03-07T10:59:51;31.50;56.90
39665;DHT22;26679;50.872;4.332;2024-03-07T11:04:49;31.90;56.70
39665;DHT22;26679;50.872;4.332;2024-03-07T11:07:18;32.00;56.50
39665;DHT22;26679;50.872;4.332;2024-03-07T11:09:45;32.10;56.40
39665;DHT22;26679;50.872;4.332;2024-03-07T11:12:12;32.30;56.30
39665;DHT22;26679;50.872;4.332;2024-03-07T11:14:38;32.30;56.20
39665;DHT22;26679;50.872;4.332;2024-03-07T11:17:04;32.30;56.10
39665;DHT22;26679;50.872;4.332;2024-03-07T11:19:33;32.30;56.30
39665;DHT22;26679;50.872;4.332;2024-03-07T11:22:02;32.40;56.20
39665;DHT22;26679;50.872;4.332;2024-03-07T11:24:31;32.40;56.10
39665;DHT22;26679;50.872;4.332;2024-03-07T11:26:58;32.50;56.20
39665;DHT22;26679;50.872;4.332;2024-03-07T11:32:10;32.60;55.80
39665;DHT22;26679;50.872;4.332;2024-03-07T11:34:40;32.60;55.70
39665;DHT22;26679;50.872;4.332;2024-03-07T11:37:16;32.10;56.30
39665;DHT22;26679;50.872;4.332;2024-03-07T11:39:48;31.40;56.00
39665;DHT22;26679;50.872;4.332;2024-03-07T11:44:51;30.80;56.60
39665;DHT22;26679;50.872;4.332;2024-03-07T11:47:17;30.30;56.70
39665;DHT22;26679;50.872;4.332;2024-03-07T11:49:44;30.10;57.10
39665;DHT22;26679;50.872;4.332;2024-03-07T11:52:14;29.70;57.20
39665;DHT22;26679;50.872;4.332;2024-03-07T11:54:39;29.60;57.40
39665;DHT22;26679;50.872;4.332;2024-03-07T11:57:11;29.30;58.10
39665;DHT22;26679;50.872;4.332;2024-03-07T11:59:41;29.10;57.90
39665;DHT22;26679;50.872;4.332;2024-03-07T12:02:13;28.80;58.60
39665;DHT22;26679;50.872;4.332;2024-03-07T12:04:41;28.70;58.20
39665;DHT22;26679;50.872;4.332;2024-03-07T12:07:06;28.50;58.40
39665;DHT22;26679;50.872;4.332;2024-03-07T12:09:32;28.40;58.50
39665;DHT22;26679;50.872;4.332;2024-03-07T12:12:00;28.30;58.70
39665;DHT22;26679;50.872;4.332;2024-03-07T12:14:27;28.80;58.80
39665;DHT22;26679;50.872;4.332;2024-03-07T12:16:53;29.60;58.50
39665;DHT22;26679;50.872;4.332;2024-03-07T12:19:18;30.30;58.00
39665;DHT22;26679;50.872;4.332;2024-03-07T12:21:46;30.80;57.60
39665;DHT22;26679;50.872;4.332;2024-03-07T12:24:12;31.30;57.30
39665;DHT22;26679;50.872;4.332;2024-03-07T12:26:37;31.80;57.00
39665;DHT22;26679;50.872;4.332;2024-03-07T12:29:10;32.20;56.70
39665;DHT22;26679;50.872;4.332;2024-03-07T12:31:41;32.50;56.50
39665;DHT22;26679;50.872;4.332;2024-03-07T12:34:07;32.70;56.20
39665;DHT22;26679;50.872;4.332;2024-03-07T12:36:34;32.40;56.10
39665;DHT22;26679;50.872;4.332;2024-03-07T12:41:30;31.50;56.50
39665;DHT22;26679;50.872;4.332;2024-03-07T12:43:56;31.00;56.70
39665;DHT22;26679;50.872;4.332;2024-03-07T12:46:22;30.70;56.90
39665;DHT22;26679;50.872;4.332;2024-03-07T12:48:50;30.40;57.20
39665;DHT22;26679;50.872;4.332;2024-03-07T12:51:15;30.10;57.40
39665;DHT22;26679;50.872;4.332;2024-03-07T12:53:44;29.90;57.60
39665;DHT22;26679;50.872;4.332;2024-03-07T12:56:11;29.60;57.70
39665;DHT22;26679;50.872;4.332;2024-03-07T12:58:41;29.40;57.80
39665;DHT22;26679;50.872;4.332;2024-03-07T13:01:08;29.40;58.00
39665;DHT22;26679;50.872;4.332;2024-03-07T13:03:33;29.30;58.10
39665;DHT22;26679;50.872;4.332;2024-03-07T13:06:00;29.20;58.30
39665;DHT22;26679;50.872;4.332;2024-03-07T13:08:26;29.60;58.20
39665;DHT22;26679;50.872;4.332;2024-03-07T13:10:53;30.30;58.00
39665;DHT22;26679;50.872;4.332;2024-03-07T13:13:20;30.60;57.50
39665;DHT22;26679;50.872;4.332;2024-03-07T13:15:46;30.70;57.40
39665;DHT22;26679;50.872;4.332;2024-03-07T13:18:12;30.60;57.30
39665;DHT22;26679;50.872;4.332;2024-03-07T13:20:39;30.30;57.30
39665;DHT22;26679;50.872;4.332;2024-03-07T13:23:04;30.00;57.50
39665;DHT22;26679;50.872;4.332;2024-03-07T13:25:30;29.80;57.80
39665;DHT22;26679;50.872;4.332;2024-03-07T13:28:03;29.70;57.90
39665;DHT22;26679;50.872;4.332;2024-03-07T13:30:29;30.10;57.80
39665;DHT22;26679;50.872;4.332;2024-03-07T13:32:55;30.30;57.60
39665;DHT22;26679;50.872;4.332;2024-03-07T13:35:20;30.10;57.60
39665;DHT22;26679;50.872;4.332;2024-03-07T13:37:47;30.10;57.70
39665;DHT22;26679;50.872;4.332;2024-03-07T13:40:12;30.50;57.70
39665;DHT22;26679;50.872;4.332;2024-03-07T13:43:00;30.90;57.40
39665;DHT22;26679;50.872;4.332;2024-03-07T13:45:29;31.40;57.10
39665;DHT22;26679;50.872;4.332;2024-03-07T13:47:57;31.50;56.90
39665;DHT22;26679;50.872;4.332;2024-03-07T13:50:24;31.60;56.90
39665;DHT22;26679;50.872;4.332;2024-03-07T13:52:50;31.90;56.90
39665;DHT22;26679;50.872;4.332;2024-03-07T13:55:30;32.20;56.50
39665;DHT22;26679;50.872;4.332;2024-03-07T13:57:56;32.40;56.40
39665;DHT22;26679;50.872;4.332;2024-03-07T14:08:45;33.00;55.90
39665;DHT22;26679;50.872;4.332;2024-03-07T14:16:43;33.10;55.70
39665;DHT22;26679;50.872;4.332;2024-03-07T14:22:16;32.10;56.10
39665;DHT22;26679;50.872;4.332;2024-03-07T14:27:50;32.10;56.20
39665;DHT22;26679;50.872;4.332;2024-03-07T14:30:19;31.80;56.30
39665;DHT22;26679;50.872;4.332;2024-03-07T14:32:52;31.80;56.50
39665;DHT22;26679;50.872;4.332;2024-03-07T14:37:55;31.90;56.40
39665;DHT22;26679;50.872;4.332;2024-03-07T14:40:27;32.10;56.40
39665;DHT22;26679;50.872;4.332;2024-03-07T14:42:53;32.20;56.30
39665;DHT22;26679;50.872;4.332;2024-03-07T14:45:32;32.30;56.20
39665;DHT22;26679;50.872;4.332;2024-03-07T14:48:00;32.40;56.20
39665;DHT22;26679;50.872;4.332;2024-03-07T14:50:27;32.50;56.10
39665;DHT22;26679;50.872;4.332;2024-03-07T14:52:52;32.50;56.10
39665;DHT22;26679;50.872;4.332;2024-03-07T14:55:18;32.50;56.00
39665;DHT22;26679;50.872;4.332;2024-03-07T14:57:44;32.50;56.00
39665;DHT22;26679;50.872;4.332;2024-03-07T15:00:11;32.50;56.10
39665;DHT22;26679;50.872;4.332;2024-03-07T15:02:47;32.40;56.00
39665;DHT22;26679;50.872;4.332;2024-03-07T15:05:13;32.30;56.20
39665;DHT22;26679;50.872;4.332;2024-03-07T15:07:39;32.00;56.30
39665;DHT22;26679;50.872;4.332;2024-03-07T15:10:06;31.80;56.40
39665;DHT22;26679;50.872;4.332;2024-03-07T15:12:35;31.50;56.60
39665;DHT22;26679;50.872;4.332;2024-03-07T15:15:01;31.20;56.70
39665;DHT22;26679;50.872;4.332;2024-03-07T15:17:26;31.00;56.90
39665;DHT22;26679;50.872;4.332;2024-03-07T15:19:51;30.80;57.10
39665;DHT22;26679;50.872;4.332;2024-03-07T15:22:17;30.60;57.80
39665;DHT22;26679;50.872;4.332;2024-03-07T15:24:45;30.40;57.40
39665;DHT22;26679;50.872;4.332;2024-03-07T15:27:11;30.20;57.50
39665;DHT22;26679;50.872;4.332;2024-03-07T15:29:36;30.00;57.70
39665;DHT22;26679;50.872;4.332;2024-03-07T15:32:02;29.90;57.80
39665;DHT22;26679;50.872;4.332;2024-03-07T15:34:28;29.70;57.90
39665;DHT22;26679;50.872;4.332;2024-03-07T15:37:00;29.60;58.10
39665;DHT22;26679;50.872;4.332;2024-03-07T15:41:58;29.30;58.30
39665;DHT22;26679;50.872;4.332;2024-03-07T15:44:24;29.20;58.40
39665;DHT22;26679;50.872;4.332;2024-03-07T15:46:50;29.10;58.50
39665;DHT22;26679;50.872;4.332;2024-03-07T15:49:16;29.00;58.60
39665;DHT22;26679;50.872;4.332;2024-03-07T15:51:42;28.90;58.80
39665;DHT22;26679;50.872;4.332;2024-03-07T15:54:08;28.70;58.80
39665;DHT22;26679;50.872;4.332;2024-03-07T15:56:34;28.60;58.90
39665;DHT22;26679;50.872;4.332;2024-03-07T15:58:59;28.50;59.00
39665;DHT22;26679;50.872;4.332;2024-03-07T16:01:25;28.30;59.10
39665;DHT22;26679;50.872;4.332;2024-03-07T16:03:50;28.20;59.20
39665;DHT22;26679;50.872;4.332;2024-03-07T16:06:16;28.10;59.30
39665;DHT22;26679;50.872;4.332;2024-03-07T16:08:41;28.00;59.40
39665;DHT22;26679;50.872;4.332;2024-03-07T16:11:07;27.90;59.50
39665;DHT22;26679;50.872;4.332;2024-03-07T16:13:34;27.80;59.70